sensor_id;sensor_type;location;lat;lon;timestamp;P1;durP1;ratioP1;P2;durP2;ratioP2
9409;SDS011;4744;52.576;13.568;2023-04-25T00:02:21;3.08;;;2.88;;
9409;SDS011;4744;52.576;13.568;2023-04-25T00:04:48;2.42;;;2.22;;
9409;SDS011;4744;52.576;13.568;2023-04-25T00:07:15;4.70;;;2.80;;
9409;SDS011;4744;52.576;13.568;2023-04-25T00:09:42;3.10;;;2.80;;
9409;SDS011;4744;52.576;13.568;2023-04-25T00:12:09;2.92;;;2.47;;
9409;SDS011;4744;52.576;13.568;2023-04-25T00:14:36;3.13;;;2.58;;
9409;SDS011;4744;52.576;13.568;2023-04-25T00:17:04;2.70;;;2.50;;
9409;SDS011;4744;52.576;13.568;2023-04-25T00:19:31;2.53;;;2.33;;
9409;SDS011;4744;52.576;13.568;2023-04-25T00:22:00;4.28;;;2.50;;
9409;SDS011;4744;52.576;13.568;2023-04-25T00:24:27;3.17;;;2.55;;
9409;SDS011;4744;52.576;13.568;2023-04-25T00:26:54;2.95;;;2.58;;
9409;SDS011;4744;52.576;13.568;2023-04-25T00:29:21;2.83;;;2.20;;
9409;SDS011;4744;52.576;13.568;2023-04-25T00:31:48;2.67;;;2.20;;
9409;SDS011;4744;52.576;13.568;2023-04-25T00:34:16;3.88;;;2.10;;
9409;SDS011;4744;52.576;13.568;2023-04-25T00:36:43;2.75;;;2.00;;
9409;SDS011;4744;52.576;13.568;2023-04-25T00:39:11;3.47;;;2.28;;
9409;SDS011;4744;52.576;13.568;2023-04-25T00:41:38;2.55;;;2.10;;
9409;SDS011;4744;52.576;13.568;2023-04-25T00:44:05;3.17;;;2.35;;
9409;SDS011;4744;52.576;13.568;2023-04-25T00:46:36;3.78;;;2.10;;
9409;SDS011;4744;52.576;13.568;2023-04-25T00:49:03;4.13;;;2.20;;
9409;SDS011;4744;52.576;13.568;2023-04-25T00:51:31;3.28;;;2.45;;
9409;SDS011;4744;52.576;13.568;2023-04-25T00:53:59;3.50;;;2.30;;
9409;SDS011;4744;52.576;13.568;2023-04-25T00:56:27;3.63;;;2.50;;
9409;SDS011;4744;52.576;13.568;2023-04-25T00:58:54;2.50;;;2.30;;
9409;SDS011;4744;52.576;13.568;2023-04-25T01:01:22;6.07;;;2.40;;
9409;SDS011;4744;52.576;13.568;2023-04-25T01:03:49;4.55;;;2.50;;
9409;SDS011;4744;52.576;13.568;2023-04-25T01:06:16;3.50;;;2.30;;
9409;SDS011;4744;52.576;13.568;2023-04-25T01:08:44;3.20;;;2.08;;
9409;SDS011;4744;52.576;13.568;2023-04-25T01:11:11;3.92;;;2.50;;
9409;SDS011;4744;52.576;13.568;2023-04-25T01:13:38;3.63;;;2.53;;
9409;SDS011;4744;52.576;13.568;2023-04-25T01:16:05;4.30;;;2.67;;
9409;SDS011;4744;52.576;13.568;2023-04-25T01:18:32;4.35;;;2.80;;
9409;SDS011;4744;52.576;13.568;2023-04-25T01:21:07;3.72;;;2.40;;
9409;SDS011;4744;52.576;13.568;2023-04-25T01:23:34;3.17;;;2.30;;
9409;SDS011;4744;52.576;13.568;2023-04-25T01:26:02;4.25;;;2.53;;
9409;SDS011;4744;52.576;13.568;2023-04-25T01:28:29;5.10;;;2.50;;
9409;SDS011;4744;52.576;13.568;2023-04-25T01:30:56;3.05;;;2.65;;
9409;SDS011;4744;52.576;13.568;2023-04-25T01:33:23;4.55;;;2.60;;
9409;SDS011;4744;52.576;13.568;2023-04-25T01:35:50;6.93;;;2.78;;
9409;SDS011;4744;52.576;13.568;2023-04-25T01:38:19;5.38;;;2.72;;
9409;SDS011;4744;52.576;13.568;2023-04-25T01:40:46;5.60;;;2.60;;
9409;SDS011;4744;52.576;13.568;2023-04-25T01:43:15;4.15;;;2.67;;
9409;SDS011;4744;52.576;13.568;2023-04-25T01:45:42;4.38;;;2.33;;
9409;SDS011;4744;52.576;13.568;2023-04-25T01:48:09;4.75;;;2.78;;
9409;SDS011;4744;52.576;13.568;2023-04-25T01:50:36;4.90;;;2.65;;
9409;SDS011;4744;52.576;13.568;2023-04-25T01:53:04;5.82;;;3.03;;
9409;SDS011;4744;52.576;13.568;2023-04-25T01:55:32;4.88;;;2.72;;
9409;SDS011;4744;52.576;13.568;2023-04-25T01:57:59;5.93;;;2.70;;
9409;SDS011;4744;52.576;13.568;2023-04-25T02:00:28;4.78;;;2.60;;
9409;SDS011;4744;52.576;13.568;2023-04-25T02:02:57;4.70;;;2.90;;
9409;SDS011;4744;52.576;13.568;2023-04-25T02:05:24;5.05;;;2.92;;
9409;SDS011;4744;52.576;13.568;2023-04-25T02:07:51;4.70;;;2.90;;
9409;SDS011;4744;52.576;13.568;2023-04-25T02:10:18;5.22;;;2.95;;
9409;SDS011;4744;52.576;13.568;2023-04-25T02:12:46;4.57;;;2.30;;
9409;SDS011;4744;52.576;13.568;2023-04-25T02:15:13;8.63;;;3.05;;
9409;SDS011;4744;52.576;13.568;2023-04-25T02:17:40;3.75;;;2.53;;
9409;SDS011;4744;52.576;13.568;2023-04-25T02:20:07;4.75;;;2.90;;
9409;SDS011;4744;52.576;13.568;2023-04-25T02:22:35;4.85;;;2.85;;
9409;SDS011;4744;52.576;13.568;2023-04-25T02:25:02;4.07;;;2.55;;
9409;SDS011;4744;52.576;13.568;2023-04-25T02:27:30;3.83;;;2.85;;
9409;SDS011;4744;52.576;13.568;2023-04-25T02:29:58;4.35;;;2.80;;
9409;SDS011;4744;52.576;13.568;2023-04-25T02:32:25;6.65;;;3.20;;
9409;SDS011;4744;52.576;13.568;2023-04-25T02:34:52;4.15;;;2.85;;
9409;SDS011;4744;52.576;13.568;2023-04-25T02:37:19;6.10;;;2.95;;
9409;SDS011;4744;52.576;13.568;2023-04-25T02:39:46;5.65;;;3.15;;
9409;SDS011;4744;52.576;13.568;2023-04-25T02:42:13;3.30;;;3.00;;
9409;SDS011;4744;52.576;13.568;2023-04-25T02:44:40;6.53;;;3.40;;
9409;SDS011;4744;52.576;13.568;2023-04-25T02:47:08;6.15;;;3.03;;
9409;SDS011;4744;52.576;13.568;2023-04-25T02:49:35;4.97;;;2.92;;
9409;SDS011;4744;52.576;13.568;2023-04-25T02:52:02;3.83;;;3.28;;
9409;SDS011;4744;52.576;13.568;2023-04-25T02:54:29;4.07;;;2.83;;
9409;SDS011;4744;52.576;13.568;2023-04-25T02:56:56;5.97;;;3.28;;
9409;SDS011;4744;52.576;13.568;2023-04-25T02:59:23;4.72;;;3.22;;
9409;SDS011;4744;52.576;13.568;2023-04-25T03:01:50;7.30;;;3.50;;
9409;SDS011;4744;52.576;13.568;2023-04-25T03:04:18;5.15;;;3.03;;
9409;SDS011;4744;52.576;13.568;2023-04-25T03:06:46;3.85;;;3.38;;
9409;SDS011;4744;52.576;13.568;2023-04-25T03:09:12;4.70;;;3.22;;
9409;SDS011;4744;52.576;13.568;2023-04-25T03:11:40;4.28;;;3.33;;
9409;SDS011;4744;52.576;13.568;2023-04-25T03:14:06;5.18;;;3.45;;
9409;SDS011;4744;52.576;13.568;2023-04-25T03:16:33;4.28;;;3.00;;
9409;SDS011;4744;52.576;13.568;2023-04-25T03:19:00;6.13;;;3.30;;
9409;SDS011;4744;52.576;13.568;2023-04-25T03:21:29;7.05;;;3.80;;
9409;SDS011;4744;52.576;13.568;2023-04-25T03:23:57;4.97;;;3.17;;
9409;SDS011;4744;52.576;13.568;2023-04-25T03:26:24;8.48;;;3.47;;
9409;SDS011;4744;52.576;13.568;2023-04-25T03:28:51;6.47;;;3.50;;
9409;SDS011;4744;52.576;13.568;2023-04-25T03:31:18;4.43;;;3.00;;
9409;SDS011;4744;52.576;13.568;2023-04-25T03:33:45;4.53;;;3.53;;
9409;SDS011;4744;52.576;13.568;2023-04-25T03:36:12;4.53;;;3.25;;
9409;SDS011;4744;52.576;13.568;2023-04-25T03:38:40;5.72;;;3.45;;
9409;SDS011;4744;52.576;13.568;2023-04-25T03:41:07;6.20;;;3.13;;
9409;SDS011;4744;52.576;13.568;2023-04-25T03:43:34;4.63;;;3.50;;
9409;SDS011;4744;52.576;13.568;2023-04-25T03:46:01;4.07;;;3.15;;
9409;SDS011;4744;52.576;13.568;2023-04-25T03:48:28;4.72;;;3.65;;
9409;SDS011;4744;52.576;13.568;2023-04-25T03:50:54;8.45;;;3.80;;
9409;SDS011;4744;52.576;13.568;2023-04-25T03:53:21;3.78;;;3.38;;
9409;SDS011;4744;52.576;13.568;2023-04-25T03:55:50;4.53;;;3.30;;
9409;SDS011;4744;52.576;13.568;2023-04-25T03:58:17;5.43;;;3.67;;
9409;SDS011;4744;52.576;13.568;2023-04-25T04:00:44;8.57;;;3.92;;
9409;SDS011;4744;52.576;13.568;2023-04-25T04:03:11;6.72;;;3.70;;
9409;SDS011;4744;52.576;13.568;2023-04-25T04:05:38;4.15;;;3.45;;
9409;SDS011;4744;52.576;13.568;2023-04-25T04:08:05;6.32;;;3.58;;
9409;SDS011;4744;52.576;13.568;2023-04-25T04:10:32;4.80;;;3.85;;
9409;SDS011;4744;52.576;13.568;2023-04-25T04:13:01;6.63;;;3.60;;
9409;SDS011;4744;52.576;13.568;2023-04-25T04:15:28;5.60;;;3.50;;
9409;SDS011;4744;52.576;13.568;2023-04-25T04:17:57;5.43;;;3.42;;
9409;SDS011;4744;52.576;13.568;2023-04-25T04:20:27;5.40;;;3.28;;
9409;SDS011;4744;52.576;13.568;2023-04-25T04:22:55;6.15;;;3.42;;
9409;SDS011;4744;52.576;13.568;2023-04-25T04:25:22;6.90;;;3.70;;
9409;SDS011;4744;52.576;13.568;2023-04-25T04:27:49;4.57;;;3.58;;
9409;SDS011;4744;52.576;13.568;2023-04-25T04:30:20;6.20;;;3.33;;
9409;SDS011;4744;52.576;13.568;2023-04-25T04:32:49;5.00;;;3.30;;
9409;SDS011;4744;52.576;13.568;2023-04-25T04:35:16;7.07;;;3.90;;
9409;SDS011;4744;52.576;13.568;2023-04-25T04:37:43;4.32;;;3.42;;
9409;SDS011;4744;52.576;13.568;2023-04-25T04:40:10;3.92;;;2.90;;
9409;SDS011;4744;52.576;13.568;2023-04-25T04:42:40;4.28;;;3.30;;
9409;SDS011;4744;52.576;13.568;2023-04-25T04:45:07;4.57;;;3.17;;
9409;SDS011;4744;52.576;13.568;2023-04-25T04:47:37;4.07;;;3.38;;
9409;SDS011;4744;52.576;13.568;2023-04-25T04:50:05;3.42;;;3.13;;
9409;SDS011;4744;52.576;13.568;2023-04-25T04:52:33;5.28;;;3.08;;
9409;SDS011;4744;52.576;13.568;2023-04-25T04:55:00;5.53;;;3.35;;
9409;SDS011;4744;52.576;13.568;2023-04-25T04:57:28;4.13;;;3.30;;
9409;SDS011;4744;52.576;13.568;2023-04-25T04:59:56;5.40;;;3.50;;
9409;SDS011;4744;52.576;13.568;2023-04-25T05:02:23;3.75;;;2.90;;
9409;SDS011;4744;52.576;13.568;2023-04-25T05:04:51;4.30;;;3.05;;
9409;SDS011;4744;52.576;13.568;2023-04-25T05:07:18;4.88;;;3.33;;
9409;SDS011;4744;52.576;13.568;2023-04-25T05:09:46;3.30;;;3.00;;
9409;SDS011;4744;52.576;13.568;2023-04-25T05:12:13;3.72;;;2.92;;
9409;SDS011;4744;52.576;13.568;2023-04-25T05:14:39;4.50;;;3.15;;
9409;SDS011;4744;52.576;13.568;2023-04-25T05:17:06;4.60;;;3.13;;
9409;SDS011;4744;52.576;13.568;2023-04-25T05:19:33;8.15;;;3.17;;
9409;SDS011;4744;52.576;13.568;2023-04-25T05:22:02;3.83;;;3.22;;
9409;SDS011;4744;52.576;13.568;2023-04-25T05:24:29;4.68;;;2.92;;
9409;SDS011;4744;52.576;13.568;2023-04-25T05:26:56;5.25;;;3.00;;
9409;SDS011;4744;52.576;13.568;2023-04-25T05:29:23;4.93;;;2.78;;
9409;SDS011;4744;52.576;13.568;2023-04-25T05:31:50;4.88;;;3.35;;
9409;SDS011;4744;52.576;13.568;2023-04-25T05:34:18;6.82;;;3.17;;
9409;SDS011;4744;52.576;13.568;2023-04-25T05:36:45;5.32;;;3.22;;
9409;SDS011;4744;52.576;13.568;2023-04-25T05:39:15;4.13;;;3.30;;
9409;SDS011;4744;52.576;13.568;2023-04-25T05:41:42;5.93;;;3.08;;
9409;SDS011;4744;52.576;13.568;2023-04-25T05:44:09;3.53;;;2.80;;
9409;SDS011;4744;52.576;13.568;2023-04-25T05:46:36;3.80;;;3.17;;
9409;SDS011;4744;52.576;13.568;2023-04-25T05:49:03;5.00;;;3.38;;
9409;SDS011;4744;52.576;13.568;2023-04-25T05:51:31;4.53;;;3.65;;
9409;SDS011;4744;52.576;13.568;2023-04-25T05:53:58;5.47;;;3.47;;
9409;SDS011;4744;52.576;13.568;2023-04-25T05:56:26;4.43;;;3.45;;
9409;SDS011;4744;52.576;13.568;2023-04-25T05:58:53;7.22;;;3.72;;
9409;SDS011;4744;52.576;13.568;2023-04-25T06:01:21;4.85;;;3.45;;
9409;SDS011;4744;52.576;13.568;2023-04-25T06:03:48;6.07;;;3.83;;
9409;SDS011;4744;52.576;13.568;2023-04-25T06:06:16;5.30;;;3.28;;
9409;SDS011;4744;52.576;13.568;2023-04-25T06:08:43;6.38;;;3.60;;
9409;SDS011;4744;52.576;13.568;2023-04-25T06:11:10;5.68;;;3.60;;
9409;SDS011;4744;52.576;13.568;2023-04-25T06:13:38;4.82;;;3.40;;
9409;SDS011;4744;52.576;13.568;2023-04-25T06:16:05;6.93;;;3.85;;
9409;SDS011;4744;52.576;13.568;2023-04-25T06:18:32;4.78;;;3.55;;
9409;SDS011;4744;52.576;13.568;2023-04-25T06:20:59;4.80;;;3.83;;
9409;SDS011;4744;52.576;13.568;2023-04-25T06:23:26;5.38;;;3.80;;
9409;SDS011;4744;52.576;13.568;2023-04-25T06:25:53;4.85;;;3.78;;
9409;SDS011;4744;52.576;13.568;2023-04-25T06:28:20;6.53;;;3.90;;
9409;SDS011;4744;52.576;13.568;2023-04-25T06:30:49;5.00;;;3.80;;
9409;SDS011;4744;52.576;13.568;2023-04-25T06:33:16;4.38;;;3.30;;
9409;SDS011;4744;52.576;13.568;2023-04-25T06:35:43;7.47;;;3.88;;
9409;SDS011;4744;52.576;13.568;2023-04-25T06:38:10;4.30;;;3.63;;
9409;SDS011;4744;52.576;13.568;2023-04-25T06:40:37;5.05;;;3.63;;
9409;SDS011;4744;52.576;13.568;2023-04-25T06:43:04;5.05;;;3.72;;
9409;SDS011;4744;52.576;13.568;2023-04-25T06:45:31;5.20;;;3.47;;
9409;SDS011;4744;52.576;13.568;2023-04-25T06:47:59;6.60;;;3.90;;
9409;SDS011;4744;52.576;13.568;2023-04-25T06:50:26;3.97;;;3.55;;
9409;SDS011;4744;52.576;13.568;2023-04-25T06:52:53;6.60;;;3.63;;
9409;SDS011;4744;52.576;13.568;2023-04-25T06:55:20;6.53;;;3.45;;
9409;SDS011;4744;52.576;13.568;2023-04-25T06:57:47;4.95;;;3.45;;
9409;SDS011;4744;52.576;13.568;2023-04-25T07:00:14;6.45;;;3.90;;
9409;SDS011;4744;52.576;13.568;2023-04-25T07:02:42;4.28;;;3.33;;
9409;SDS011;4744;52.576;13.568;2023-04-25T07:05:10;6.53;;;3.83;;
9409;SDS011;4744;52.576;13.568;2023-04-25T07:07:37;6.72;;;3.75;;
9409;SDS011;4744;52.576;13.568;2023-04-25T07:10:04;7.05;;;4.07;;
9409;SDS011;4744;52.576;13.568;2023-04-25T07:12:31;7.07;;;3.90;;
9409;SDS011;4744;52.576;13.568;2023-04-25T07:14:58;7.20;;;3.88;;
9409;SDS011;4744;52.576;13.568;2023-04-25T07:17:30;4.25;;;3.22;;
9409;SDS011;4744;52.576;13.568;2023-04-25T07:19:58;4.07;;;3.42;;
9409;SDS011;4744;52.576;13.568;2023-04-25T07:22:26;6.15;;;3.55;;
9409;SDS011;4744;52.576;13.568;2023-04-25T07:24:53;6.10;;;3.78;;
9409;SDS011;4744;52.576;13.568;2023-04-25T07:27:20;5.30;;;3.58;;
9409;SDS011;4744;52.576;13.568;2023-04-25T07:29:47;4.88;;;3.75;;
9409;SDS011;4744;52.576;13.568;2023-04-25T07:32:14;5.60;;;3.50;;
9409;SDS011;4744;52.576;13.568;2023-04-25T07:34:41;5.78;;;3.65;;
9409;SDS011;4744;52.576;13.568;2023-04-25T07:37:08;3.92;;;3.42;;
9409;SDS011;4744;52.576;13.568;2023-04-25T07:39:36;6.65;;;3.45;;
9409;SDS011;4744;52.576;13.568;2023-04-25T07:42:03;8.57;;;3.80;;
9409;SDS011;4744;52.576;13.568;2023-04-25T07:44:32;6.15;;;3.65;;
9409;SDS011;4744;52.576;13.568;2023-04-25T07:47:03;7.88;;;4.18;;
9409;SDS011;4744;52.576;13.568;2023-04-25T07:49:32;5.88;;;3.63;;
9409;SDS011;4744;52.576;13.568;2023-04-25T07:51:59;7.60;;;3.63;;
9409;SDS011;4744;52.576;13.568;2023-04-25T07:54:25;7.25;;;3.78;;
9409;SDS011;4744;52.576;13.568;2023-04-25T07:56:54;7.43;;;3.38;;
9409;SDS011;4744;52.576;13.568;2023-04-25T07:59:21;7.53;;;3.67;;
9409;SDS011;4744;52.576;13.568;2023-04-25T08:01:48;7.22;;;3.55;;
9409;SDS011;4744;52.576;13.568;2023-04-25T08:04:15;6.30;;;3.10;;
9409;SDS011;4744;52.576;13.568;2023-04-25T08:06:42;8.52;;;3.47;;
9409;SDS011;4744;52.576;13.568;2023-04-25T08:09:10;6.35;;;2.88;;
9409;SDS011;4744;52.576;13.568;2023-04-25T08:11:37;6.10;;;3.13;;
9409;SDS011;4744;52.576;13.568;2023-04-25T08:14:06;10.35;;;3.65;;
9409;SDS011;4744;52.576;13.568;2023-04-25T08:16:33;11.65;;;3.47;;
9409;SDS011;4744;52.576;13.568;2023-04-25T08:19:00;10.05;;;3.63;;
9409;SDS011;4744;52.576;13.568;2023-04-25T08:21:27;10.52;;;3.28;;
9409;SDS011;4744;52.576;13.568;2023-04-25T08:23:53;9.65;;;3.20;;
9409;SDS011;4744;52.576;13.568;2023-04-25T08:26:21;5.10;;;3.00;;
9409;SDS011;4744;52.576;13.568;2023-04-25T08:28:48;10.10;;;3.40;;
9409;SDS011;4744;52.576;13.568;2023-04-25T08:31:16;13.05;;;3.67;;
9409;SDS011;4744;52.576;13.568;2023-04-25T08:33:43;11.07;;;3.25;;
9409;SDS011;4744;52.576;13.568;2023-04-25T08:36:10;9.32;;;3.30;;
9409;SDS011;4744;52.576;13.568;2023-04-25T08:38:37;5.30;;;2.72;;
9409;SDS011;4744;52.576;13.568;2023-04-25T08:41:04;9.65;;;3.47;;
9409;SDS011;4744;52.576;13.568;2023-04-25T08:43:32;10.70;;;3.40;;
9409;SDS011;4744;52.576;13.568;2023-04-25T08:46:00;13.68;;;3.30;;
9409;SDS011;4744;52.576;13.568;2023-04-25T08:48:30;14.15;;;3.63;;
9409;SDS011;4744;52.576;13.568;2023-04-25T08:50:59;11.68;;;3.13;;
9409;SDS011;4744;52.576;13.568;2023-04-25T08:53:32;10.02;;;3.33;;
9409;SDS011;4744;52.576;13.568;2023-04-25T08:56:00;10.52;;;3.35;;
9409;SDS011;4744;52.576;13.568;2023-04-25T08:58:27;8.82;;;3.55;;
9409;SDS011;4744;52.576;13.568;2023-04-25T09:00:54;9.15;;;2.80;;
9409;SDS011;4744;52.576;13.568;2023-04-25T09:03:22;9.07;;;3.28;;
9409;SDS011;4744;52.576;13.568;2023-04-25T09:05:50;8.27;;;3.28;;
9409;SDS011;4744;52.576;13.568;2023-04-25T09:08:17;8.50;;;3.05;;
9409;SDS011;4744;52.576;13.568;2023-04-25T09:10:44;9.77;;;3.50;;
9409;SDS011;4744;52.576;13.568;2023-04-25T09:13:12;8.18;;;3.20;;
9409;SDS011;4744;52.576;13.568;2023-04-25T09:15:47;12.05;;;3.50;;
9409;SDS011;4744;52.576;13.568;2023-04-25T09:18:25;8.52;;;2.90;;
9409;SDS011;4744;52.576;13.568;2023-04-25T09:20:55;5.55;;;2.67;;
9409;SDS011;4744;52.576;13.568;2023-04-25T09:23:24;6.50;;;2.55;;
9409;SDS011;4744;52.576;13.568;2023-04-25T09:25:52;7.43;;;2.58;;
9409;SDS011;4744;52.576;13.568;2023-04-25T09:28:22;9.88;;;2.83;;
9409;SDS011;4744;52.576;13.568;2023-04-25T09:30:54;5.88;;;2.63;;
9409;SDS011;4744;52.576;13.568;2023-04-25T09:33:26;7.93;;;3.15;;
9409;SDS011;4744;52.576;13.568;2023-04-25T09:36:02;6.50;;;2.47;;
9409;SDS011;4744;52.576;13.568;2023-04-25T09:38:30;7.43;;;2.70;;
9409;SDS011;4744;52.576;13.568;2023-04-25T09:40:58;5.75;;;2.30;;
9409;SDS011;4744;52.576;13.568;2023-04-25T09:43:26;9.75;;;2.83;;
9409;SDS011;4744;52.576;13.568;2023-04-25T09:45:54;7.97;;;2.85;;
9409;SDS011;4744;52.576;13.568;2023-04-25T09:48:24;7.13;;;2.50;;
9409;SDS011;4744;52.576;13.568;2023-04-25T09:51:06;5.53;;;2.40;;
9409;SDS011;4744;52.576;13.568;2023-04-25T09:53:36;8.93;;;3.03;;
9409;SDS011;4744;52.576;13.568;2023-04-25T09:56:04;5.95;;;2.40;;
9409;SDS011;4744;52.576;13.568;2023-04-25T09:58:33;7.03;;;2.70;;
9409;SDS011;4744;52.576;13.568;2023-04-25T10:01:02;7.28;;;3.17;;
9409;SDS011;4744;52.576;13.568;2023-04-25T10:03:30;13.15;;;3.05;;
9409;SDS011;4744;52.576;13.568;2023-04-25T10:05:59;9.95;;;2.97;;
9409;SDS011;4744;52.576;13.568;2023-04-25T10:08:31;9.50;;;3.20;;
9409;SDS011;4744;52.576;13.568;2023-04-25T10:10:59;8.15;;;2.90;;
9409;SDS011;4744;52.576;13.568;2023-04-25T10:13:28;6.13;;;2.13;;
9409;SDS011;4744;52.576;13.568;2023-04-25T10:15:56;7.68;;;2.80;;
9409;SDS011;4744;52.576;13.568;2023-04-25T10:18:24;9.32;;;2.33;;
9409;SDS011;4744;52.576;13.568;2023-04-25T10:20:52;6.70;;;2.22;;
9409;SDS011;4744;52.576;13.568;2023-04-25T10:23:20;5.78;;;2.20;;
9409;SDS011;4744;52.576;13.568;2023-04-25T10:25:49;5.07;;;2.10;;
9409;SDS011;4744;52.576;13.568;2023-04-25T10:28:17;5.97;;;2.40;;
9409;SDS011;4744;52.576;13.568;2023-04-25T10:30:57;5.43;;;2.40;;
9409;SDS011;4744;52.576;13.568;2023-04-25T10:33:34;4.95;;;2.00;;
9409;SDS011;4744;52.576;13.568;2023-04-25T10:36:08;8.20;;;2.83;;
9409;SDS011;4744;52.576;13.568;2023-04-25T10:38:36;5.53;;;2.30;;
9409;SDS011;4744;52.576;13.568;2023-04-25T10:41:05;4.95;;;2.28;;
9409;SDS011;4744;52.576;13.568;2023-04-25T10:43:35;6.57;;;2.30;;
9409;SDS011;4744;52.576;13.568;2023-04-25T10:46:13;7.70;;;2.60;;
9409;SDS011;4744;52.576;13.568;2023-04-25T10:48:47;4.93;;;2.30;;
9409;SDS011;4744;52.576;13.568;2023-04-25T10:51:21;4.32;;;2.00;;
9409;SDS011;4744;52.576;13.568;2023-04-25T10:53:59;4.05;;;2.22;;
9409;SDS011;4744;52.576;13.568;2023-04-25T10:56:29;9.35;;;2.10;;
9409;SDS011;4744;52.576;13.568;2023-04-25T10:59:04;3.42;;;1.77;;
9409;SDS011;4744;52.576;13.568;2023-04-25T11:01:35;7.38;;;2.40;;
9409;SDS011;4744;52.576;13.568;2023-04-25T11:04:03;6.40;;;2.53;;
9409;SDS011;4744;52.576;13.568;2023-04-25T11:06:34;6.72;;;2.42;;
9409;SDS011;4744;52.576;13.568;2023-04-25T11:09:12;7.47;;;2.35;;
9409;SDS011;4744;52.576;13.568;2023-04-25T11:11:41;3.13;;;1.73;;
9409;SDS011;4744;52.576;13.568;2023-04-25T11:14:08;3.90;;;2.00;;
9409;SDS011;4744;52.576;13.568;2023-04-25T11:16:35;4.75;;;2.28;;
9409;SDS011;4744;52.576;13.568;2023-04-25T11:19:02;7.07;;;2.17;;
9409;SDS011;4744;52.576;13.568;2023-04-25T11:21:30;6.35;;;2.28;;
9409;SDS011;4744;52.576;13.568;2023-04-25T11:23:57;4.45;;;1.85;;
9409;SDS011;4744;52.576;13.568;2023-04-25T11:26:25;3.17;;;1.95;;
9409;SDS011;4744;52.576;13.568;2023-04-25T11:28:58;7.38;;;2.20;;
9409;SDS011;4744;52.576;13.568;2023-04-25T11:31:25;6.28;;;1.88;;
9409;SDS011;4744;52.576;13.568;2023-04-25T11:33:53;6.90;;;2.05;;
9409;SDS011;4744;52.576;13.568;2023-04-25T11:36:22;5.15;;;2.28;;
9409;SDS011;4744;52.576;13.568;2023-04-25T11:38:49;6.20;;;1.88;;
9409;SDS011;4744;52.576;13.568;2023-04-25T11:41:17;4.70;;;1.80;;
9409;SDS011;4744;52.576;13.568;2023-04-25T11:43:45;6.18;;;1.77;;
9409;SDS011;4744;52.576;13.568;2023-04-25T11:46:14;4.60;;;2.03;;
9409;SDS011;4744;52.576;13.568;2023-04-25T11:48:41;5.55;;;2.15;;
9409;SDS011;4744;52.576;13.568;2023-04-25T11:51:10;9.00;;;2.15;;
9409;SDS011;4744;52.576;13.568;2023-04-25T11:53:38;6.68;;;1.90;;
9409;SDS011;4744;52.576;13.568;2023-04-25T11:56:09;3.60;;;1.70;;
9409;SDS011;4744;52.576;13.568;2023-04-25T12:01:27;3.40;;;1.80;;
9409;SDS011;4744;52.576;13.568;2023-04-25T12:03:55;4.75;;;1.70;;
9409;SDS011;4744;52.576;13.568;2023-04-25T12:06:25;2.55;;;1.67;;
9409;SDS011;4744;52.576;13.568;2023-04-25T12:08:59;4.38;;;1.73;;
9409;SDS011;4744;52.576;13.568;2023-04-25T12:11:28;5.93;;;1.98;;
9409;SDS011;4744;52.576;13.568;2023-04-25T12:13:56;6.45;;;1.88;;
9409;SDS011;4744;52.576;13.568;2023-04-25T12:16:30;5.68;;;2.33;;
9409;SDS011;4744;52.576;13.568;2023-04-25T12:19:06;3.65;;;1.80;;
9409;SDS011;4744;52.576;13.568;2023-04-25T12:21:33;3.88;;;1.60;;
9409;SDS011;4744;52.576;13.568;2023-04-25T12:24:08;5.60;;;1.73;;
9409;SDS011;4744;52.576;13.568;2023-04-25T12:26:45;5.97;;;1.90;;
9409;SDS011;4744;52.576;13.568;2023-04-25T12:29:20;7.10;;;2.15;;
9409;SDS011;4744;52.576;13.568;2023-04-25T12:31:49;5.85;;;1.90;;
9409;SDS011;4744;52.576;13.568;2023-04-25T12:34:17;3.85;;;1.98;;
9409;SDS011;4744;52.576;13.568;2023-04-25T12:36:44;7.22;;;2.00;;
9409;SDS011;4744;52.576;13.568;2023-04-25T12:39:14;5.50;;;2.08;;
9409;SDS011;4744;52.576;13.568;2023-04-25T12:41:42;4.35;;;1.92;;
9409;SDS011;4744;52.576;13.568;2023-04-25T12:44:09;4.45;;;1.77;;
9409;SDS011;4744;52.576;13.568;2023-04-25T12:46:36;5.05;;;1.70;;
9409;SDS011;4744;52.576;13.568;2023-04-25T12:49:05;5.65;;;1.80;;
9409;SDS011;4744;52.576;13.568;2023-04-25T12:51:32;3.05;;;1.60;;
9409;SDS011;4744;52.576;13.568;2023-04-25T12:53:59;3.38;;;1.65;;
9409;SDS011;4744;52.576;13.568;2023-04-25T12:56:26;3.05;;;1.85;;
9409;SDS011;4744;52.576;13.568;2023-04-25T12:58:53;5.53;;;2.00;;
9409;SDS011;4744;52.576;13.568;2023-04-25T13:01:20;4.00;;;1.58;;
9409;SDS011;4744;52.576;13.568;2023-04-25T13:03:48;7.30;;;1.95;;
9409;SDS011;4744;52.576;13.568;2023-04-25T13:06:16;4.15;;;1.83;;
9409;SDS011;4744;52.576;13.568;2023-04-25T13:08:44;5.80;;;2.13;;
9409;SDS011;4744;52.576;13.568;2023-04-25T13:11:11;5.38;;;2.17;;
9409;SDS011;4744;52.576;13.568;2023-04-25T13:13:39;4.55;;;1.80;;
9409;SDS011;4744;52.576;13.568;2023-04-25T13:16:07;3.65;;;1.65;;
9409;SDS011;4744;52.576;13.568;2023-04-25T13:18:34;8.15;;;1.80;;
9409;SDS011;4744;52.576;13.568;2023-04-25T13:21:01;2.38;;;1.48;;
9409;SDS011;4744;52.576;13.568;2023-04-25T13:23:30;3.88;;;1.70;;
9409;SDS011;4744;52.576;13.568;2023-04-25T13:25:56;3.95;;;1.63;;
9409;SDS011;4744;52.576;13.568;2023-04-25T13:28:24;5.80;;;1.80;;
9409;SDS011;4744;52.576;13.568;2023-04-25T13:30:51;3.83;;;1.50;;
9409;SDS011;4744;52.576;13.568;2023-04-25T13:33:18;3.80;;;1.58;;
9409;SDS011;4744;52.576;13.568;2023-04-25T13:35:46;4.30;;;1.55;;
9409;SDS011;4744;52.576;13.568;2023-04-25T13:38:18;3.08;;;1.38;;
9409;SDS011;4744;52.576;13.568;2023-04-25T13:40:48;4.18;;;1.77;;
9409;SDS011;4744;52.576;13.568;2023-04-25T13:43:18;1.70;;;1.15;;
9409;SDS011;4744;52.576;13.568;2023-04-25T13:45:46;3.28;;;1.60;;
9409;SDS011;4744;52.576;13.568;2023-04-25T13:48:13;4.25;;;1.65;;
9409;SDS011;4744;52.576;13.568;2023-04-25T13:50:40;2.90;;;1.55;;
9409;SDS011;4744;52.576;13.568;2023-04-25T13:53:07;6.70;;;1.92;;
9409;SDS011;4744;52.576;13.568;2023-04-25T13:55:34;5.65;;;1.98;;
9409;SDS011;4744;52.576;13.568;2023-04-25T13:58:03;4.22;;;1.75;;
9409;SDS011;4744;52.576;13.568;2023-04-25T14:00:33;3.95;;;1.70;;
9409;SDS011;4744;52.576;13.568;2023-04-25T14:03:03;3.47;;;1.42;;
9409;SDS011;4744;52.576;13.568;2023-04-25T14:05:32;4.03;;;1.80;;
9409;SDS011;4744;52.576;13.568;2023-04-25T14:08:03;3.60;;;1.90;;
9409;SDS011;4744;52.576;13.568;2023-04-25T14:10:31;7.93;;;2.00;;
9409;SDS011;4744;52.576;13.568;2023-04-25T14:12:58;5.10;;;1.85;;
9409;SDS011;4744;52.576;13.568;2023-04-25T14:15:30;4.57;;;1.48;;
9409;SDS011;4744;52.576;13.568;2023-04-25T14:17:57;4.93;;;1.80;;
9409;SDS011;4744;52.576;13.568;2023-04-25T14:20:25;3.38;;;1.73;;
9409;SDS011;4744;52.576;13.568;2023-04-25T14:22:52;2.20;;;1.38;;
9409;SDS011;4744;52.576;13.568;2023-04-25T14:25:21;5.00;;;1.60;;
9409;SDS011;4744;52.576;13.568;2023-04-25T14:27:48;5.18;;;1.40;;
9409;SDS011;4744;52.576;13.568;2023-04-25T14:30:16;2.22;;;1.60;;
9409;SDS011;4744;52.576;13.568;2023-04-25T14:32:45;3.38;;;1.65;;
9409;SDS011;4744;52.576;13.568;2023-04-25T14:35:12;4.45;;;1.95;;
9409;SDS011;4744;52.576;13.568;2023-04-25T14:37:40;4.60;;;1.73;;
9409;SDS011;4744;52.576;13.568;2023-04-25T14:40:08;4.65;;;1.58;;
9409;SDS011;4744;52.576;13.568;2023-04-25T14:42:37;5.03;;;1.90;;
9409;SDS011;4744;52.576;13.568;2023-04-25T14:45:04;2.45;;;1.30;;
9409;SDS011;4744;52.576;13.568;2023-04-25T14:47:33;5.97;;;1.70;;
9409;SDS011;4744;52.576;13.568;2023-04-25T14:50:02;3.47;;;1.73;;
9409;SDS011;4744;52.576;13.568;2023-04-25T14:52:30;5.90;;;1.98;;
9409;SDS011;4744;52.576;13.568;2023-04-25T14:54:58;3.97;;;1.83;;
9409;SDS011;4744;52.576;13.568;2023-04-25T14:57:29;4.05;;;2.00;;
9409;SDS011;4744;52.576;13.568;2023-04-25T14:59:57;3.33;;;1.38;;
9409;SDS011;4744;52.576;13.568;2023-04-25T15:02:24;4.80;;;1.60;;
9409;SDS011;4744;52.576;13.568;2023-04-25T15:04:52;6.05;;;1.67;;
9409;SDS011;4744;52.576;13.568;2023-04-25T15:07:21;2.92;;;1.60;;
9409;SDS011;4744;52.576;13.568;2023-04-25T15:09:48;3.17;;;1.60;;